sensor_id;sensor_type;location;lat;lon;timestamp;P1;durP1;ratioP1;P2;durP2;ratioP2
37529;SDS011;23374;52.758;6.872;2023-02-08T00:00:22;15.37;;;9.73;;
37529;SDS011;23374;52.758;6.872;2023-02-08T00:02:43;14.33;;;8.40;;
37529;SDS011;23374;52.758;6.872;2023-02-08T00:05:04;14.30;;;8.50;;
37529;SDS011;23374;52.758;6.872;2023-02-08T00:07:25;20.57;;;9.50;;
37529;SDS011;23374;52.758;6.872;2023-02-08T00:09:46;17.33;;;8.80;;
37529;SDS011;23374;52.758;6.872;2023-02-08T00:12:06;14.83;;;9.53;;
37529;SDS011;23374;52.758;6.872;2023-02-08T00:14:27;15.33;;;9.20;;
37529;SDS011;23374;52.758;6.872;2023-02-08T00:16:48;17.43;;;9.13;;
37529;SDS011;23374;52.758;6.872;2023-02-08T00:19:09;15.17;;;8.87;;
37529;SDS011;23374;52.758;6.872;2023-02-08T00:21:29;18.30;;;9.33;;
37529;SDS011;23374;52.758;6.872;2023-02-08T00:25:08;20.47;;;8.87;;
37529;SDS011;23374;52.758;6.872;2023-02-08T00:27:31;15.67;;;7.30;;
37529;SDS011;23374;52.758;6.872;2023-02-08T00:29:51;16.67;;;8.10;;
37529;SDS011;23374;52.758;6.872;2023-02-08T00:32:11;17.53;;;8.67;;
37529;SDS011;23374;52.758;6.872;2023-02-08T00:34:32;19.67;;;9.07;;
37529;SDS011;23374;52.758;6.872;2023-02-08T00:36:55;17.10;;;9.03;;
37529;SDS011;23374;52.758;6.872;2023-02-08T00:39:16;14.00;;;7.17;;
37529;SDS011;23374;52.758;6.872;2023-02-08T00:41:37;15.90;;;8.47;;
37529;SDS011;23374;52.758;6.872;2023-02-08T00:43:57;17.30;;;8.80;;
37529;SDS011;23374;52.758;6.872;2023-02-08T00:46:18;16.77;;;9.07;;
37529;SDS011;23374;52.758;6.872;2023-02-08T00:48:39;16.97;;;8.17;;
37529;SDS011;23374;52.758;6.872;2023-02-08T00:51:11;18.80;;;8.50;;
37529;SDS011;23374;52.758;6.872;2023-02-08T00:53:40;12.57;;;7.90;;
37529;SDS011;23374;52.758;6.872;2023-02-08T00:56:04;15.43;;;8.00;;
37529;SDS011;23374;52.758;6.872;2023-02-08T00:58:25;21.87;;;8.20;;
37529;SDS011;23374;52.758;6.872;2023-02-08T01:00:46;16.13;;;7.63;;
37529;SDS011;23374;52.758;6.872;2023-02-08T01:03:10;13.63;;;7.73;;
37529;SDS011;23374;52.758;6.872;2023-02-08T01:05:31;14.67;;;8.50;;
37529;SDS011;23374;52.758;6.872;2023-02-08T01:07:51;16.87;;;8.60;;
37529;SDS011;23374;52.758;6.872;2023-02-08T01:10:12;15.83;;;8.03;;
37529;SDS011;23374;52.758;6.872;2023-02-08T01:12:34;13.87;;;8.30;;
37529;SDS011;23374;52.758;6.872;2023-02-08T01:14:54;16.47;;;7.83;;
37529;SDS011;23374;52.758;6.872;2023-02-08T01:17:15;14.50;;;7.63;;
37529;SDS011;23374;52.758;6.872;2023-02-08T01:19:35;15.90;;;8.13;;
37529;SDS011;23374;52.758;6.872;2023-02-08T01:21:58;14.20;;;7.93;;
37529;SDS011;23374;52.758;6.872;2023-02-08T01:25:16;14.67;;;8.00;;
37529;SDS011;23374;52.758;6.872;2023-02-08T01:27:37;16.70;;;8.73;;
37529;SDS011;23374;52.758;6.872;2023-02-08T01:29:57;19.70;;;8.77;;
37529;SDS011;23374;52.758;6.872;2023-02-08T01:32:17;17.43;;;8.63;;
37529;SDS011;23374;52.758;6.872;2023-02-08T01:34:37;19.37;;;7.73;;
37529;SDS011;23374;52.758;6.872;2023-02-08T01:36:57;14.40;;;7.17;;
37529;SDS011;23374;52.758;6.872;2023-02-08T01:39:17;15.80;;;8.53;;
37529;SDS011;23374;52.758;6.872;2023-02-08T01:41:41;10.73;;;6.93;;
37529;SDS011;23374;52.758;6.872;2023-02-08T01:46:41;16.33;;;8.23;;
37529;SDS011;23374;52.758;6.872;2023-02-08T01:50:04;15.10;;;7.63;;
37529;SDS011;23374;52.758;6.872;2023-02-08T01:52:25;15.97;;;7.57;;
37529;SDS011;23374;52.758;6.872;2023-02-08T01:55:14;13.80;;;7.17;;
37529;SDS011;23374;52.758;6.872;2023-02-08T01:57:38;14.40;;;7.20;;
37529;SDS011;23374;52.758;6.872;2023-02-08T02:00:15;14.03;;;6.83;;
37529;SDS011;23374;52.758;6.872;2023-02-08T02:02:37;12.37;;;6.67;;
37529;SDS011;23374;52.758;6.872;2023-02-08T02:04:59;13.73;;;6.90;;
37529;SDS011;23374;52.758;6.872;2023-02-08T02:07:21;14.43;;;7.33;;
37529;SDS011;23374;52.758;6.872;2023-02-08T02:10:08;12.53;;;7.53;;
37529;SDS011;23374;52.758;6.872;2023-02-08T02:12:35;16.57;;;7.33;;
37529;SDS011;23374;52.758;6.872;2023-02-08T02:14:58;13.67;;;7.10;;
37529;SDS011;23374;52.758;6.872;2023-02-08T02:17:20;13.73;;;8.17;;
37529;SDS011;23374;52.758;6.872;2023-02-08T02:26:08;14.60;;;7.93;;
37529;SDS011;23374;52.758;6.872;2023-02-08T02:43:13;14.53;;;6.17;;
37529;SDS011;23374;52.758;6.872;2023-02-08T02:46:47;11.17;;;6.03;;
37529;SDS011;23374;52.758;6.872;2023-02-08T02:49:26;11.90;;;6.00;;
37529;SDS011;23374;52.758;6.872;2023-02-08T02:52:08;13.77;;;7.20;;
37529;SDS011;23374;52.758;6.872;2023-02-08T02:54:35;16.13;;;8.27;;
37529;SDS011;23374;52.758;6.872;2023-02-08T02:57:06;12.63;;;7.23;;
37529;SDS011;23374;52.758;6.872;2023-02-08T02:59:33;11.97;;;7.47;;
37529;SDS011;23374;52.758;6.872;2023-02-08T03:01:56;13.97;;;7.03;;
37529;SDS011;23374;52.758;6.872;2023-02-08T03:05:02;14.97;;;7.00;;
37529;SDS011;23374;52.758;6.872;2023-02-08T03:07:42;16.60;;;7.67;;
37529;SDS011;23374;52.758;6.872;2023-02-08T03:17:12;12.37;;;6.77;;
37529;SDS011;23374;52.758;6.872;2023-02-08T03:20:09;14.73;;;7.53;;
37529;SDS011;23374;52.758;6.872;2023-02-08T03:23:05;17.47;;;8.13;;
37529;SDS011;23374;52.758;6.872;2023-02-08T03:25:26;14.87;;;7.93;;
37529;SDS011;23374;52.758;6.872;2023-02-08T03:28:23;16.47;;;8.77;;
37529;SDS011;23374;52.758;6.872;2023-02-08T03:31:32;14.63;;;7.23;;
37529;SDS011;23374;52.758;6.872;2023-02-08T03:38:30;14.53;;;8.10;;
37529;SDS011;23374;52.758;6.872;2023-02-08T03:40:58;14.20;;;7.00;;
37529;SDS011;23374;52.758;6.872;2023-02-08T03:43:28;11.97;;;7.17;;
37529;SDS011;23374;52.758;6.872;2023-02-08T03:46:03;11.97;;;6.60;;
37529;SDS011;23374;52.758;6.872;2023-02-08T03:48:33;12.93;;;6.90;;
37529;SDS011;23374;52.758;6.872;2023-02-08T03:50:56;12.80;;;6.57;;
37529;SDS011;23374;52.758;6.872;2023-02-08T03:53:20;19.60;;;7.13;;
37529;SDS011;23374;52.758;6.872;2023-02-08T03:55:42;12.17;;;7.70;;
37529;SDS011;23374;52.758;6.872;2023-02-08T03:58:14;13.03;;;7.30;;
37529;SDS011;23374;52.758;6.872;2023-02-08T04:00:41;16.67;;;6.80;;
37529;SDS011;23374;52.758;6.872;2023-02-08T04:03:12;13.73;;;7.33;;
37529;SDS011;23374;52.758;6.872;2023-02-08T04:05:39;12.57;;;7.27;;
37529;SDS011;23374;52.758;6.872;2023-02-08T04:08:00;14.20;;;6.77;;
37529;SDS011;23374;52.758;6.872;2023-02-08T04:10:21;16.63;;;7.43;;
37529;SDS011;23374;52.758;6.872;2023-02-08T04:12:41;15.10;;;7.50;;
37529;SDS011;23374;52.758;6.872;2023-02-08T04:15:03;15.73;;;8.37;;
37529;SDS011;23374;52.758;6.872;2023-02-08T04:17:23;17.97;;;8.17;;
37529;SDS011;23374;52.758;6.872;2023-02-08T04:19:44;16.90;;;7.70;;
37529;SDS011;23374;52.758;6.872;2023-02-08T04:22:04;17.03;;;7.40;;
37529;SDS011;23374;52.758;6.872;2023-02-08T04:24:24;13.00;;;6.77;;
37529;SDS011;23374;52.758;6.872;2023-02-08T04:26:44;12.43;;;6.50;;
37529;SDS011;23374;52.758;6.872;2023-02-08T04:29:04;15.83;;;7.50;;
37529;SDS011;23374;52.758;6.872;2023-02-08T04:31:25;16.07;;;8.17;;
37529;SDS011;23374;52.758;6.872;2023-02-08T04:33:45;16.90;;;7.63;;
37529;SDS011;23374;52.758;6.872;2023-02-08T04:36:06;12.30;;;6.60;;
37529;SDS011;23374;52.758;6.872;2023-02-08T04:38:32;16.07;;;8.07;;
37529;SDS011;23374;52.758;6.872;2023-02-08T04:40:52;17.73;;;7.43;;
37529;SDS011;23374;52.758;6.872;2023-02-08T04:43:12;17.20;;;8.20;;
37529;SDS011;23374;52.758;6.872;2023-02-08T04:45:33;16.57;;;8.33;;
37529;SDS011;23374;52.758;6.872;2023-02-08T04:47:53;17.20;;;8.57;;
37529;SDS011;23374;52.758;6.872;2023-02-08T04:50:13;14.43;;;8.27;;
37529;SDS011;23374;52.758;6.872;2023-02-08T04:52:34;14.53;;;7.80;;
37529;SDS011;23374;52.758;6.872;2023-02-08T04:54:54;16.70;;;7.97;;
37529;SDS011;23374;52.758;6.872;2023-02-08T04:57:15;17.93;;;8.57;;
37529;SDS011;23374;52.758;6.872;2023-02-08T04:59:35;20.73;;;9.47;;
37529;SDS011;23374;52.758;6.872;2023-02-08T05:01:55;18.50;;;8.40;;
37529;SDS011;23374;52.758;6.872;2023-02-08T05:04:16;13.97;;;8.07;;
37529;SDS011;23374;52.758;6.872;2023-02-08T05:06:36;17.60;;;8.23;;
37529;SDS011;23374;52.758;6.872;2023-02-08T05:08:56;18.03;;;9.37;;
37529;SDS011;23374;52.758;6.872;2023-02-08T05:11:20;13.03;;;7.77;;
37529;SDS011;23374;52.758;6.872;2023-02-08T05:13:42;14.80;;;7.70;;
37529;SDS011;23374;52.758;6.872;2023-02-08T05:16:02;16.87;;;8.10;;
37529;SDS011;23374;52.758;6.872;2023-02-08T05:18:23;16.23;;;8.53;;
37529;SDS011;23374;52.758;6.872;2023-02-08T05:20:43;19.50;;;8.93;;
37529;SDS011;23374;52.758;6.872;2023-02-08T05:23:04;17.40;;;7.90;;
37529;SDS011;23374;52.758;6.872;2023-02-08T05:25:24;14.10;;;7.93;;
37529;SDS011;23374;52.758;6.872;2023-02-08T05:27:45;18.57;;;8.47;;
37529;SDS011;23374;52.758;6.872;2023-02-08T05:30:06;20.30;;;8.67;;
37529;SDS011;23374;52.758;6.872;2023-02-08T05:32:27;17.37;;;9.13;;
37529;SDS011;23374;52.758;6.872;2023-02-08T05:34:47;22.03;;;9.03;;
37529;SDS011;23374;52.758;6.872;2023-02-08T05:37:07;20.80;;;10.07;;
37529;SDS011;23374;52.758;6.872;2023-02-08T05:39:27;17.93;;;8.10;;
37529;SDS011;23374;52.758;6.872;2023-02-08T05:41:48;21.90;;;9.17;;
37529;SDS011;23374;52.758;6.872;2023-02-08T05:44:08;16.57;;;9.00;;
37529;SDS011;23374;52.758;6.872;2023-02-08T05:46:29;16.50;;;8.70;;
37529;SDS011;23374;52.758;6.872;2023-02-08T05:48:49;19.37;;;9.10;;
37529;SDS011;23374;52.758;6.872;2023-02-08T05:51:10;18.87;;;8.93;;
37529;SDS011;23374;52.758;6.872;2023-02-08T05:53:30;17.40;;;8.93;;
37529;SDS011;23374;52.758;6.872;2023-02-08T05:55:50;17.83;;;8.97;;
37529;SDS011;23374;52.758;6.872;2023-02-08T05:58:11;15.50;;;8.57;;
37529;SDS011;23374;52.758;6.872;2023-02-08T06:02:16;14.37;;;8.47;;
37529;SDS011;23374;52.758;6.872;2023-02-08T06:04:37;16.67;;;8.80;;
37529;SDS011;23374;52.758;6.872;2023-02-08T06:06:57;19.20;;;9.70;;
37529;SDS011;23374;52.758;6.872;2023-02-08T06:09:17;18.27;;;8.80;;
37529;SDS011;23374;52.758;6.872;2023-02-08T06:11:38;16.30;;;8.07;;
37529;SDS011;23374;52.758;6.872;2023-02-08T06:13:58;16.80;;;8.97;;
37529;SDS011;23374;52.758;6.872;2023-02-08T06:16:18;22.30;;;9.73;;
37529;SDS011;23374;52.758;6.872;2023-02-08T06:18:39;19.20;;;8.57;;
37529;SDS011;23374;52.758;6.872;2023-02-08T06:20:59;18.77;;;8.33;;
37529;SDS011;23374;52.758;6.872;2023-02-08T06:23:21;20.23;;;9.03;;
37529;SDS011;23374;52.758;6.872;2023-02-08T06:25:41;21.07;;;9.23;;
37529;SDS011;23374;52.758;6.872;2023-02-08T06:28:02;19.70;;;10.13;;
37529;SDS011;23374;52.758;6.872;2023-02-08T06:30:22;18.47;;;9.70;;
37529;SDS011;23374;52.758;6.872;2023-02-08T06:32:43;21.87;;;10.47;;
37529;SDS011;23374;52.758;6.872;2023-02-08T06:35:03;17.97;;;9.57;;
37529;SDS011;23374;52.758;6.872;2023-02-08T06:37:23;18.30;;;9.20;;
37529;SDS011;23374;52.758;6.872;2023-02-08T06:39:44;20.17;;;10.03;;
37529;SDS011;23374;52.758;6.872;2023-02-08T06:42:04;24.13;;;10.07;;
37529;SDS011;23374;52.758;6.872;2023-02-08T06:44:25;20.10;;;9.63;;
37529;SDS011;23374;52.758;6.872;2023-02-08T06:46:45;16.43;;;8.67;;
37529;SDS011;23374;52.758;6.872;2023-02-08T06:49:06;16.50;;;9.20;;
37529;SDS011;23374;52.758;6.872;2023-02-08T06:51:26;19.93;;;10.00;;
37529;SDS011;23374;52.758;6.872;2023-02-08T06:53:46;18.20;;;9.37;;
37529;SDS011;23374;52.758;6.872;2023-02-08T06:56:06;21.17;;;9.63;;
37529;SDS011;23374;52.758;6.872;2023-02-08T06:58:27;21.27;;;9.47;;
37529;SDS011;23374;52.758;6.872;2023-02-08T07:00:47;23.63;;;10.87;;
37529;SDS011;23374;52.758;6.872;2023-02-08T07:03:08;21.40;;;10.20;;
37529;SDS011;23374;52.758;6.872;2023-02-08T07:05:28;24.67;;;10.63;;
37529;SDS011;23374;52.758;6.872;2023-02-08T07:07:48;19.00;;;10.17;;
37529;SDS011;23374;52.758;6.872;2023-02-08T07:10:09;21.87;;;10.97;;
37529;SDS011;23374;52.758;6.872;2023-02-08T07:12:34;24.17;;;10.60;;
37529;SDS011;23374;52.758;6.872;2023-02-08T07:14:55;20.63;;;10.27;;
37529;SDS011;23374;52.758;6.872;2023-02-08T07:17:15;19.70;;;10.90;;
37529;SDS011;23374;52.758;6.872;2023-02-08T07:19:37;18.17;;;10.17;;
37529;SDS011;23374;52.758;6.872;2023-02-08T07:21:58;19.03;;;9.10;;
37529;SDS011;23374;52.758;6.872;2023-02-08T07:24:23;22.53;;;8.90;;
37529;SDS011;23374;52.758;6.872;2023-02-08T07:26:44;23.77;;;11.23;;
37529;SDS011;23374;52.758;6.872;2023-02-08T07:29:08;20.30;;;9.37;;
37529;SDS011;23374;52.758;6.872;2023-02-08T07:31:28;22.37;;;11.10;;
37529;SDS011;23374;52.758;6.872;2023-02-08T07:33:49;22.80;;;10.33;;
37529;SDS011;23374;52.758;6.872;2023-02-08T07:36:10;20.53;;;10.77;;
37529;SDS011;23374;52.758;6.872;2023-02-08T07:38:31;18.73;;;10.20;;
37529;SDS011;23374;52.758;6.872;2023-02-08T07:40:59;25.07;;;10.43;;
37529;SDS011;23374;52.758;6.872;2023-02-08T07:43:20;22.87;;;9.87;;
37529;SDS011;23374;52.758;6.872;2023-02-08T07:45:41;19.00;;;10.10;;
37529;SDS011;23374;52.758;6.872;2023-02-08T07:48:01;19.83;;;10.33;;
37529;SDS011;23374;52.758;6.872;2023-02-08T07:50:23;22.13;;;10.60;;
37529;SDS011;23374;52.758;6.872;2023-02-08T07:52:43;22.07;;;10.07;;
37529;SDS011;23374;52.758;6.872;2023-02-08T07:55:05;22.47;;;9.77;;
37529;SDS011;23374;52.758;6.872;2023-02-08T07:57:26;24.03;;;10.93;;
37529;SDS011;23374;52.758;6.872;2023-02-08T07:59:46;17.67;;;9.13;;
37529;SDS011;23374;52.758;6.872;2023-02-08T08:02:07;19.47;;;10.80;;
37529;SDS011;23374;52.758;6.872;2023-02-08T08:04:33;21.80;;;10.63;;
37529;SDS011;23374;52.758;6.872;2023-02-08T08:06:54;22.03;;;10.47;;
37529;SDS011;23374;52.758;6.872;2023-02-08T08:09:15;19.40;;;10.13;;
37529;SDS011;23374;52.758;6.872;2023-02-08T08:11:35;24.70;;;11.87;;
37529;SDS011;23374;52.758;6.872;2023-02-08T08:13:56;18.37;;;9.67;;
37529;SDS011;23374;52.758;6.872;2023-02-08T08:16:17;21.83;;;10.77;;
37529;SDS011;23374;52.758;6.872;2023-02-08T08:18:38;27.77;;;10.33;;
37529;SDS011;23374;52.758;6.872;2023-02-08T08:20:59;22.93;;;10.53;;
37529;SDS011;23374;52.758;6.872;2023-02-08T08:23:19;21.73;;;9.83;;
37529;SDS011;23374;52.758;6.872;2023-02-08T08:25:40;22.70;;;11.70;;
37529;SDS011;23374;52.758;6.872;2023-02-08T08:28:00;23.53;;;11.73;;
37529;SDS011;23374;52.758;6.872;2023-02-08T08:30:21;26.20;;;12.50;;
37529;SDS011;23374;52.758;6.872;2023-02-08T08:32:41;21.40;;;10.23;;
37529;SDS011;23374;52.758;6.872;2023-02-08T08:35:06;21.23;;;9.37;;
37529;SDS011;23374;52.758;6.872;2023-02-08T08:37:27;21.07;;;10.03;;
37529;SDS011;23374;52.758;6.872;2023-02-08T08:39:48;18.17;;;10.00;;
37529;SDS011;23374;52.758;6.872;2023-02-08T08:42:08;22.33;;;10.03;;
37529;SDS011;23374;52.758;6.872;2023-02-08T08:44:29;19.23;;;7.83;;
37529;SDS011;23374;52.758;6.872;2023-02-08T08:46:53;23.37;;;11.00;;
37529;SDS011;23374;52.758;6.872;2023-02-08T08:49:15;20.33;;;10.63;;
37529;SDS011;23374;52.758;6.872;2023-02-08T08:51:35;21.00;;;10.63;;
37529;SDS011;23374;52.758;6.872;2023-02-08T08:53:56;20.77;;;10.37;;
37529;SDS011;23374;52.758;6.872;2023-02-08T08:56:16;27.17;;;10.80;;
37529;SDS011;23374;52.758;6.872;2023-02-08T08:58:36;17.10;;;9.13;;
37529;SDS011;23374;52.758;6.872;2023-02-08T09:00:57;22.77;;;11.00;;
37529;SDS011;23374;52.758;6.872;2023-02-08T09:03:18;26.20;;;11.17;;
37529;SDS011;23374;52.758;6.872;2023-02-08T09:05:38;22.70;;;10.80;;
37529;SDS011;23374;52.758;6.872;2023-02-08T09:07:58;23.43;;;11.37;;
37529;SDS011;23374;52.758;6.872;2023-02-08T09:10:20;24.53;;;11.87;;
37529;SDS011;23374;52.758;6.872;2023-02-08T09:12:40;20.73;;;10.10;;
37529;SDS011;23374;52.758;6.872;2023-02-08T09:15:00;21.53;;;9.33;;
37529;SDS011;23374;52.758;6.872;2023-02-08T09:17:21;20.00;;;10.20;;
37529;SDS011;23374;52.758;6.872;2023-02-08T09:19:42;22.03;;;10.13;;
37529;SDS011;23374;52.758;6.872;2023-02-08T09:22:05;22.50;;;10.60;;
37529;SDS011;23374;52.758;6.872;2023-02-08T09:24:26;21.77;;;10.23;;
37529;SDS011;23374;52.758;6.872;2023-02-08T09:26:46;26.97;;;10.70;;
37529;SDS011;23374;52.758;6.872;2023-02-08T09:29:07;21.10;;;10.30;;
37529;SDS011;23374;52.758;6.872;2023-02-08T09:31:29;27.10;;;11.33;;
37529;SDS011;23374;52.758;6.872;2023-02-08T09:33:52;23.83;;;11.07;;
37529;SDS011;23374;52.758;6.872;2023-02-08T09:36:15;20.50;;;10.00;;
37529;SDS011;23374;52.758;6.872;2023-02-08T09:38:37;17.90;;;9.43;;
37529;SDS011;23374;52.758;6.872;2023-02-08T09:41:36;23.37;;;10.53;;
37529;SDS011;23374;52.758;6.872;2023-02-08T09:46:25;19.03;;;9.80;;
37529;SDS011;23374;52.758;6.872;2023-02-08T09:48:51;22.17;;;10.50;;
37529;SDS011;23374;52.758;6.872;2023-02-08T09:52:41;20.60;;;10.50;;
37529;SDS011;23374;52.758;6.872;2023-02-08T09:55:26;21.67;;;9.53;;
37529;SDS011;23374;52.758;6.872;2023-02-08T09:57:56;21.87;;;10.23;;
37529;SDS011;23374;52.758;6.872;2023-02-08T10:00:24;23.77;;;9.87;;
37529;SDS011;23374;52.758;6.872;2023-02-08T10:02:53;19.23;;;9.57;;
37529;SDS011;23374;52.758;6.872;2023-02-08T10:05:20;17.77;;;9.50;;
37529;SDS011;23374;52.758;6.872;2023-02-08T10:07:42;17.03;;;9.03;;
37529;SDS011;23374;52.758;6.872;2023-02-08T10:10:05;19.73;;;10.13;;
37529;SDS011;23374;52.758;6.872;2023-02-08T10:13:29;19.07;;;9.60;;
37529;SDS011;23374;52.758;6.872;2023-02-08T10:18:12;17.00;;;8.93;;
37529;SDS011;23374;52.758;6.872;2023-02-08T10:21:12;18.93;;;8.87;;
37529;SDS011;23374;52.758;6.872;2023-02-08T10:36:20;16.17;;;6.37;;
37529;SDS011;23374;52.758;6.872;2023-02-08T10:38:46;14.73;;;8.27;;
37529;SDS011;23374;52.758;6.872;2023-02-08T10:41:14;14.67;;;8.47;;
37529;SDS011;23374;52.758;6.872;2023-02-08T10:43:41;16.27;;;9.00;;
37529;SDS011;23374;52.758;6.872;2023-02-08T10:49:18;16.63;;;8.63;;
37529;SDS011;23374;52.758;6.872;2023-02-08T10:52:31;15.97;;;7.43;;
37529;SDS011;23374;52.758;6.872;2023-02-08T10:54:51;15.50;;;8.10;;
37529;SDS011;23374;52.758;6.872;2023-02-08T10:57:19;12.23;;;6.57;;
37529;SDS011;23374;52.758;6.872;2023-02-08T10:59:55;12.87;;;6.40;;
37529;SDS011;23374;52.758;6.872;2023-02-08T11:02:37;16.40;;;6.70;;
37529;SDS011;23374;52.758;6.872;2023-02-08T11:05:34;13.27;;;6.83;;
37529;SDS011;23374;52.758;6.872;2023-02-08T11:08:07;13.00;;;6.40;;
37529;SDS011;23374;52.758;6.872;2023-02-08T11:10:30;10.30;;;5.73;;
37529;SDS011;23374;52.758;6.872;2023-02-08T11:13:40;14.60;;;7.50;;
37529;SDS011;23374;52.758;6.872;2023-02-08T11:17:46;16.20;;;7.20;;
37529;SDS011;23374;52.758;6.872;2023-02-08T11:20:21;13.23;;;6.63;;
37529;SDS011;23374;52.758;6.872;2023-02-08T11:22:46;12.17;;;6.90;;
37529;SDS011;23374;52.758;6.872;2023-02-08T11:25:12;14.37;;;5.70;;
37529;SDS011;23374;52.758;6.872;2023-02-08T11:27:53;12.03;;;6.77;;
37529;SDS011;23374;52.758;6.872;2023-02-08T11:30:20;9.70;;;5.33;;
37529;SDS011;23374;52.758;6.872;2023-02-08T11:32:44;12.37;;;6.97;;
37529;SDS011;23374;52.758;6.872;2023-02-08T11:35:25;10.40;;;5.57;;
37529;SDS011;23374;52.758;6.872;2023-02-08T11:37:52;10.90;;;5.87;;
37529;SDS011;23374;52.758;6.872;2023-02-08T11:40:34;10.70;;;5.47;;
37529;SDS011;23374;52.758;6.872;2023-02-08T11:43:02;12.03;;;6.33;;
37529;SDS011;23374;52.758;6.872;2023-02-08T11:45:28;13.50;;;5.57;;
37529;SDS011;23374;52.758;6.872;2023-02-08T11:47:51;12.00;;;6.20;;
37529;SDS011;23374;52.758;6.872;2023-02-08T11:50:29;9.60;;;5.50;;
37529;SDS011;23374;52.758;6.872;2023-02-08T11:53:03;12.43;;;5.00;;
37529;SDS011;23374;52.758;6.872;2023-02-08T11:55:39;10.10;;;5.33;;
37529;SDS011;23374;52.758;6.872;2023-02-08T11:58:22;12.10;;;5.57;;
37529;SDS011;23374;52.758;6.872;2023-02-08T12:01:08;13.37;;;6.03;;
37529;SDS011;23374;52.758;6.872;2023-02-08T12:03:44;11.20;;;5.57;;
37529;SDS011;23374;52.758;6.872;2023-02-08T12:12:26;8.37;;;4.40;;
37529;SDS011;23374;52.758;6.872;2023-02-08T12:16:46;9.93;;;5.30;;
37529;SDS011;23374;52.758;6.872;2023-02-08T12:20:27;7.67;;;3.97;;
37529;SDS011;23374;52.758;6.872;2023-02-08T12:26:19;10.47;;;4.80;;
37529;SDS011;23374;52.758;6.872;2023-02-08T12:50:18;7.50;;;4.67;;
37529;SDS011;23374;52.758;6.872;2023-02-08T12:55:36;8.30;;;4.43;;
37529;SDS011;23374;52.758;6.872;2023-02-08T12:58:29;8.83;;;4.03;;
37529;SDS011;23374;52.758;6.872;2023-02-08T13:00:57;7.63;;;4.67;;
37529;SDS011;23374;52.758;6.872;2023-02-08T13:03:53;13.60;;;5.20;;
37529;SDS011;23374;52.758;6.872;2023-02-08T13:06:25;7.37;;;4.13;;
37529;SDS011;23374;52.758;6.872;2023-02-08T13:10:41;8.30;;;4.63;;
37529;SDS011;23374;52.758;6.872;2023-02-08T13:13:13;7.53;;;4.43;;
37529;SDS011;23374;52.758;6.872;2023-02-08T13:15:41;8.07;;;3.77;;
37529;SDS011;23374;52.758;6.872;2023-02-08T13:18:17;7.13;;;4.10;;
37529;SDS011;23374;52.758;6.872;2023-02-08T13:21:27;11.47;;;5.03;;
37529;SDS011;23374;52.758;6.872;2023-02-08T13:23:51;8.37;;;4.97;;
37529;SDS011;23374;52.758;6.872;2023-02-08T13:26:20;11.67;;;5.00;;
37529;SDS011;23374;52.758;6.872;2023-02-08T13:28:50;7.87;;;4.57;;
37529;SDS011;23374;52.758;6.872;2023-02-08T13:31:15;6.13;;;3.87;;
37529;SDS011;23374;52.758;6.872;2023-02-08T13:33:56;7.63;;;4.33;;
37529;SDS011;23374;52.758;6.872;2023-02-08T13:36:36;9.37;;;4.07;;
37529;SDS011;23374;52.758;6.872;2023-02-08T13:40:43;6.90;;;3.43;;
37529;SDS011;23374;52.758;6.872;2023-02-08T13:43:19;9.13;;;4.10;;
37529;SDS011;23374;52.758;6.872;2023-02-08T13:45:44;6.93;;;3.70;;
37529;SDS011;23374;52.758;6.872;2023-02-08T13:48:13;6.53;;;3.17;;
37529;SDS011;23374;52.758;6.872;2023-02-08T13:50:41;7.07;;;3.57;;
37529;SDS011;23374;52.758;6.872;2023-02-08T13:53:04;8.13;;;4.00;;
37529;SDS011;23374;52.758;6.872;2023-02-08T13:55:53;7.23;;;3.97;;
37529;SDS011;23374;52.758;6.872;2023-02-08T14:02:35;4.83;;;3.33;;
37529;SDS011;23374;52.758;6.872;2023-02-08T14:05:42;7.27;;;3.50;;
37529;SDS011;23374;52.758;6.872;2023-02-08T14:08:22;9.27;;;3.73;;
37529;SDS011;23374;52.758;6.872;2023-02-08T14:11:11;5.13;;;3.10;;
37529;SDS011;23374;52.758;6.872;2023-02-08T14:14:05;6.40;;;3.50;;
37529;SDS011;23374;52.758;6.872;2023-02-08T14:17:29;7.43;;;3.03;;
37529;SDS011;23374;52.758;6.872;2023-02-08T14:20:00;6.43;;;3.43;;
37529;SDS011;23374;52.758;6.872;2023-02-08T14:22:23;7.07;;;3.60;;
37529;SDS011;23374;52.758;6.872;2023-02-08T14:24:58;13.87;;;4.70;;
37529;SDS011;23374;52.758;6.872;2023-02-08T14:28:06;6.10;;;3.70;;
37529;SDS011;23374;52.758;6.872;2023-02-08T14:30:53;8.17;;;3.70;;
37529;SDS011;23374;52.758;6.872;2023-02-08T14:33:25;6.13;;;3.57;;
37529;SDS011;23374;52.758;6.872;2023-02-08T14:35:56;4.97;;;3.50;;
37529;SDS011;23374;52.758;6.872;2023-02-08T14:38:47;7.73;;;3.40;;
37529;SDS011;23374;52.758;6.872;2023-02-08T14:41:40;7.30;;;3.93;;
37529;SDS011;23374;52.758;6.872;2023-02-08T14:48:55;8.27;;;3.57;;
37529;SDS011;23374;52.758;6.872;2023-02-08T14:51:26;6.73;;;3.50;;
37529;SDS011;23374;52.758;6.872;2023-02-08T14:53:51;6.30;;;3.30;;
37529;SDS011;23374;52.758;6.872;2023-02-08T14:56:33;5.90;;;2.90;;
37529;SDS011;23374;52.758;6.872;2023-02-08T14:59:16;6.77;;;3.73;;
37529;SDS011;23374;52.758;6.872;2023-02-08T15:01:53;5.40;;;3.20;;
37529;SDS011;23374;52.758;6.872;2023-02-08T15:04:19;5.23;;;2.63;;
37529;SDS011;23374;52.758;6.872;2023-02-08T15:08:18;6.53;;;3.73;;
37529;SDS011;23374;52.758;6.872;2023-02-08T15:10:41;4.33;;;2.83;;
37529;SDS011;23374;52.758;6.872;2023-02-08T15:13:04;5.47;;;3.53;;
37529;SDS011;23374;52.758;6.872;2023-02-08T15:15:38;7.17;;;3.30;;
37529;SDS011;23374;52.758;6.872;2023-02-08T15:18:00;6.10;;;3.13;;
37529;SDS011;23374;52.758;6.872;2023-02-08T15:20:28;5.53;;;3.47;;
37529;SDS011;23374;52.758;6.872;2023-02-08T15:22:58;5.57;;;3.20;;
37529;SDS011;23374;52.758;6.872;2023-02-08T15:25:38;6.57;;;3.40;;
37529;SDS011;23374;52.758;6.872;2023-02-08T15:28:01;7.20;;;3.07;;
37529;SDS011;23374;52.758;6.872;2023-02-08T15:30:37;4.57;;;2.90;;
37529;SDS011;23374;52.758;6.872;2023-02-08T15:32:59;7.47;;;3.17;;
37529;SDS011;23374;52.758;6.872;2023-02-08T15:35:22;6.57;;;2.60;;
37529;SDS011;23374;52.758;6.872;2023-02-08T15:37:45;5.07;;;2.77;;
37529;SDS011;23374;52.758;6.872;2023-02-08T15:40:29;4.40;;;2.53;;
37529;SDS011;23374;52.758;6.872;2023-02-08T15:42:51;7.17;;;2.80;;
37529;SDS011;23374;52.758;6.872;2023-02-08T15:45:26;7.67;;;3.20;;
37529;SDS011;23374;52.758;6.872;2023-02-08T15:47:49;3.57;;;2.33;;
37529;SDS011;23374;52.758;6.872;2023-02-08T15:50:16;5.77;;;2.90;;
37529;SDS011;23374;52.758;6.872;2023-02-08T15:52:38;3.50;;;2.33;;
37529;SDS011;23374;52.758;6.872;2023-02-08T15:54:59;5.03;;;2.97;;
37529;SDS011;23374;52.758;6.872;2023-02-08T15:57:32;5.67;;;3.07;;
37529;SDS011;23374;52.758;6.872;2023-02-08T16:00:11;5.53;;;2.80;;
37529;SDS011;23374;52.758;6.872;2023-02-08T16:02:34;6.73;;;2.70;;
37529;SDS011;23374;52.758;6.872;2023-02-08T16:04:55;4.47;;;2.80;;
37529;SDS011;23374;52.758;6.872;2023-02-08T16:07:31;3.50;;;2.57;;
37529;SDS011;23374;52.758;6.872;2023-02-08T16:09:56;4.20;;;2.63;;
37529;SDS011;23374;52.758;6.872;2023-02-08T16:12:21;15.67;;;3.00;;
37529;SDS011;23374;52.758;6.872;2023-02-08T16:14:43;4.70;;;2.70;;
37529;SDS011;23374;52.758;6.872;2023-02-08T16:17:04;5.80;;;2.83;;
37529;SDS011;23374;52.758;6.872;2023-02-08T16:19:33;5.03;;;2.77;;
37529;SDS011;23374;52.758;6.872;2023-02-08T16:24:44;5.07;;;3.13;;
37529;SDS011;23374;52.758;6.872;2023-02-08T16:29:52;5.10;;;3.10;;
37529;SDS011;23374;52.758;6.872;2023-02-08T16:35:22;4.53;;;2.87;;
37529;SDS011;23374;52.758;6.872;2023-02-08T16:38:00;5.43;;;2.80;;